Terminal Aerodrome Forecast
Issued by NWS

Home | Current Version | Previous Version | Graphics & Text | Print | Product List | Glossary On
Versions: 1 2 3 4 5 6 7 8 9 10 11 12 13 14
000
FTUS43 KICT 231100
TAFCNU
TAF
KCNU 231124Z 2312/2412 19007KT 6SM BR VCSH SCT025 OVC060
      TEMPO 2312/2314 -SHRA
     FM231500 19011KT P6SM SCT015 BKN025
     FM240000 18006KT P6SM SCT030=

USA.gov is the U.S. government's official web portal to all federal, state and local government web resources and services.